createdAt,value
2023-01-21T00:00:27.901Z,68.20
2023-01-21T00:05:30.133Z,68.30
2023-01-21T00:10:32.334Z,68.50
2023-01-21T00:15:36.575Z,68.40
2023-01-21T00:20:38.776Z,68.10
2023-01-21T00:25:41.072Z,67.70
2023-01-21T00:30:43.353Z,67.50
2023-01-21T00:35:45.720Z,67.50
2023-01-21T00:40:47.918Z,67.20
2023-01-21T00:45:50.102Z,67.20
2023-01-21T00:50:53.862Z,67.40
2023-01-21T00:56:00.397Z,67.00
2023-01-21T01:01:13.622Z,67.80
2023-01-21T01:06:18.993Z,67.30
2023-01-21T01:11:21.717Z,67.20
2023-01-21T01:16:24.858Z,67.10
2023-01-21T01:21:27.091Z,67.10
2023-01-21T01:26:29.840Z,67.00
2023-01-21T01:31:32.662Z,67.20
2023-01-21T01:36:34.883Z,67.00
2023-01-21T01:41:37.353Z,66.80
2023-01-21T01:46:39.584Z,66.70
2023-01-21T01:56:55.324Z,66.60
2023-01-21T02:02:01.089Z,66.40
2023-01-21T02:07:04.418Z,66.50
2023-01-21T02:12:07.355Z,66.30
2023-01-21T02:27:57.250Z,66.40
2023-01-21T02:38:39.157Z,66.00
2023-01-21T02:49:05.226Z,66.00
2023-01-21T02:54:35.876Z,65.80
2023-01-21T02:59:40.324Z,65.80
2023-01-21T03:10:06.712Z,66.00
2023-01-21T03:15:38.463Z,65.70
2023-01-21T03:20:47.610Z,65.60
2023-01-21T03:25:51.203Z,65.60
2023-01-21T03:31:00.879Z,65.70
2023-01-21T03:36:11.630Z,65.40
2023-01-21T03:41:23.543Z,65.70
2023-01-21T03:46:37.271Z,65.50
2023-01-21T03:51:47.485Z,65.50
2023-01-21T03:56:49.685Z,65.40
2023-01-21T04:01:51.872Z,65.70
2023-01-21T04:06:54.177Z,65.70
2023-01-21T04:11:56.453Z,65.40
2023-01-21T04:16:58.723Z,65.40
2023-01-21T04:22:01.289Z,65.20
2023-01-21T04:27:03.622Z,65.30
2023-01-21T04:32:05.931Z,65.30
2023-01-21T04:37:08.158Z,65.20
2023-01-21T04:42:10.415Z,65.10
2023-01-21T04:47:12.574Z,65.20
2023-01-21T04:52:14.770Z,65.10
2023-01-21T04:57:17.050Z,65.10
2023-01-21T05:02:19.277Z,65.00
2023-01-21T05:07:21.898Z,65.00
2023-01-21T05:12:24.207Z,65.10
2023-01-21T05:17:26.645Z,64.90
2023-01-21T05:22:28.842Z,65.10
2023-01-21T05:27:31.271Z,65.20
2023-01-21T05:32:33.586Z,65.20
2023-01-21T05:37:35.843Z,65.30
2023-01-21T05:42:38.089Z,65.20
2023-01-21T05:47:40.420Z,65.50
2023-01-21T05:52:42.648Z,65.60
2023-01-21T05:57:44.896Z,65.80
2023-01-21T06:02:47.081Z,65.80
2023-01-21T06:07:50.471Z,66.20
2023-01-21T06:12:52.856Z,66.50
2023-01-21T06:17:55.540Z,65.70
2023-01-21T06:22:58.661Z,66.30
2023-01-21T06:28:01.433Z,66.00
2023-01-21T06:33:03.780Z,66.40
2023-01-21T06:38:06.005Z,66.80
2023-01-21T06:43:08.443Z,67.40
2023-01-21T06:48:10.654Z,68.10
2023-01-21T06:53:13.416Z,68.60
2023-01-21T06:58:15.687Z,69.40
2023-01-21T07:03:17.966Z,69.60
2023-01-21T07:08:20.284Z,69.90
2023-01-21T07:13:23.453Z,70.10
2023-01-21T07:18:25.789Z,70.00
2023-01-21T07:23:28.112Z,70.30
2023-01-21T07:28:30.364Z,70.20
2023-01-21T07:33:32.725Z,70.10
2023-01-21T07:38:35.168Z,70.30
2023-01-21T07:43:37.422Z,74.10
2023-01-21T07:48:39.610Z,76.00
2023-01-21T07:53:41.800Z,73.30
2023-01-21T07:58:44.395Z,70.20
2023-01-21T08:03:46.615Z,67.60
2023-01-21T08:08:48.970Z,63.30
2023-01-21T08:13:51.246Z,63.50
2023-01-21T08:18:54.633Z,63.10
2023-01-21T08:23:56.948Z,60.90
2023-01-21T08:28:59.209Z,60.90
2023-01-21T08:34:01.816Z,58.80
2023-01-21T08:39:06.436Z,62.50
2023-01-21T08:44:09.072Z,58.50
2023-01-21T08:49:11.535Z,60.00
2023-01-21T08:54:13.831Z,58.20
2023-01-21T08:59:17.027Z,59.70
2023-01-21T09:04:19.308Z,57.90
2023-01-21T09:09:21.595Z,59.80
2023-01-21T09:14:23.883Z,55.10
2023-01-21T09:19:26.331Z,55.10
2023-01-21T09:24:28.688Z,56.30
2023-01-21T09:29:30.959Z,57.40
2023-01-21T09:34:35.562Z,57.50
2023-01-21T09:39:38.132Z,58.00
2023-01-21T09:44:44.977Z,58.60
2023-01-21T09:54:58.568Z,59.40
2023-01-21T10:05:46.808Z,61.70
2023-01-21T10:11:02.294Z,61.90
2023-01-21T10:21:45.794Z,63.40
2023-01-21T10:26:49.879Z,63.40
2023-01-21T10:31:59.501Z,63.30
2023-01-21T11:03:10.848Z,65.10
2023-01-21T11:08:20.177Z,66.00
2023-01-21T11:13:23.283Z,67.50
2023-01-21T11:18:43.047Z,66.60
2023-01-21T11:23:57.548Z,66.30
2023-01-21T11:34:20.545Z,66.70
2023-01-21T11:39:26.843Z,67.00
2023-01-21T11:44:29.075Z,67.30
2023-01-21T11:49:33.273Z,66.70
2023-01-21T11:54:40.455Z,67.20
2023-01-21T11:59:47.204Z,68.10
2023-01-21T12:04:54.037Z,68.30
2023-01-21T12:10:22.949Z,69.10
2023-01-21T12:25:58.037Z,68.20
2023-01-21T12:31:37.622Z,67.30
2023-01-21T12:36:53.209Z,67.30
2023-01-21T12:47:36.053Z,67.80
2023-01-21T12:53:02.717Z,66.70
2023-01-21T12:58:10.117Z,67.50
2023-01-21T13:13:42.003Z,66.50
2023-01-21T13:18:50.500Z,68.00
2023-01-21T13:50:29.965Z,66.40
2023-01-21T14:00:55.450Z,66.50
2023-01-21T14:06:22.468Z,66.80
2023-01-21T14:11:35.677Z,67.70
2023-01-21T14:22:12.949Z,67.10
2023-01-21T14:43:40.497Z,67.70
2023-01-21T14:54:15.079Z,66.60
2023-01-21T14:59:42.039Z,67.80
2023-01-21T15:04:54.601Z,66.60
2023-01-21T15:10:00.482Z,67.50
2023-01-21T15:15:24.206Z,65.60
2023-01-21T15:20:48.051Z,66.10
2023-01-21T15:36:34.752Z,66.20
2023-01-21T15:52:36.665Z,67.50
2023-01-21T16:03:16.269Z,67.50
2023-01-21T16:19:00.525Z,67.70
2023-01-21T16:24:08.629Z,67.90
2023-01-21T16:29:14.088Z,68.20
2023-01-21T16:34:38.029Z,68.40
2023-01-21T16:39:42.144Z,68.40
2023-01-21T16:44:44.375Z,68.90
2023-01-21T16:49:46.660Z,68.90
2023-01-21T16:54:51.775Z,69.50
2023-01-21T16:59:56.039Z,69.90
2023-01-21T17:05:00.924Z,70.50
2023-01-21T17:10:08.583Z,70.50
2023-01-21T17:15:25.559Z,70.60
2023-01-21T17:25:49.547Z,70.50
2023-01-21T17:31:21.074Z,70.30
2023-01-21T17:36:32.174Z,70.80
2023-01-21T17:41:37.898Z,72.00
2023-01-21T17:46:46.028Z,72.80
2023-01-21T17:51:49.313Z,72.60
2023-01-21T18:02:04.853Z,72.50
2023-01-21T18:12:29.559Z,71.50
2023-01-21T18:17:32.221Z,71.50
2023-01-21T18:22:36.087Z,72.30
2023-01-21T18:27:38.466Z,72.50
2023-01-21T18:32:42.675Z,71.90
2023-01-21T18:37:45.093Z,70.90
2023-01-21T18:42:50.811Z,71.60
2023-01-21T18:47:53.428Z,71.60
2023-01-21T18:52:56.624Z,71.60
2023-01-21T18:57:58.881Z,70.90
2023-01-21T19:03:01.715Z,71.20
2023-01-21T19:08:06.243Z,71.20
2023-01-21T19:13:10.074Z,71.50
2023-01-21T19:18:14.377Z,71.60
2023-01-21T19:23:18.391Z,70.20
2023-01-21T19:28:21.820Z,70.90
2023-01-21T19:33:25.059Z,70.90
2023-01-21T19:38:27.609Z,71.80
2023-01-21T19:43:29.954Z,71.10
2023-01-21T19:48:32.357Z,70.20
2023-01-21T19:53:34.838Z,70.40
2023-01-21T19:58:38.213Z,70.50
2023-01-21T20:03:54.614Z,71.10
2023-01-21T20:09:01.985Z,71.20
2023-01-21T20:14:04.324Z,70.10
2023-01-21T20:19:09.072Z,70.30
2023-01-21T20:24:11.398Z,70.80
2023-01-21T20:29:16.676Z,71.10
2023-01-21T20:34:18.891Z,71.30
2023-01-21T20:39:21.371Z,71.50
2023-01-21T20:44:25.226Z,71.80
2023-01-21T20:49:27.467Z,72.00
2023-01-21T20:54:29.718Z,72.40
2023-01-21T20:59:32.231Z,72.80
2023-01-21T21:20:19.782Z,71.60
2023-01-21T21:25:25.700Z,72.60
2023-01-21T21:30:33.086Z,71.50
2023-01-21T21:35:37.147Z,71.40
2023-01-21T21:40:39.417Z,71.40
2023-01-21T21:46:02.266Z,71.30
2023-01-21T21:51:06.478Z,71.00
2023-01-21T21:56:11.238Z,71.10
2023-01-21T22:01:21.017Z,70.90
2023-01-21T22:06:23.294Z,70.40
2023-01-21T22:11:26.797Z,70.60
2023-01-21T22:16:29.586Z,70.00
2023-01-21T22:21:34.080Z,69.10
2023-01-21T22:26:36.511Z,70.40
2023-01-21T22:31:38.880Z,70.00
2023-01-21T22:36:46.976Z,69.80
2023-01-21T22:41:49.296Z,69.20
2023-01-21T22:46:51.523Z,69.50
2023-01-21T22:51:55.125Z,69.10
2023-01-21T22:56:57.365Z,68.80
2023-01-21T23:01:59.563Z,69.40
2023-01-21T23:07:01.883Z,68.20
2023-01-21T23:12:04.312Z,68.70
2023-01-21T23:17:06.550Z,69.80
2023-01-21T23:22:09.072Z,68.20
2023-01-21T23:27:11.321Z,67.80
2023-01-21T23:32:13.604Z,67.30
2023-01-21T23:37:15.839Z,68.20
2023-01-21T23:42:19.477Z,68.60
2023-01-21T23:47:21.722Z,69.70
2023-01-21T23:52:23.945Z,70.90
2023-01-21T23:57:26.336Z,71.30
